createdAt,value
2018-04-06T06:49:05.882Z,6.80
2018-04-06T06:51:40.443Z,7.07
2018-04-06T06:54:15.625Z,5.43
2018-04-06T06:56:50.939Z,6.23
2018-04-06T06:59:23.945Z,5.60
2018-04-06T07:02:02.538Z,6.00
2018-04-06T07:04:37.281Z,5.50
2018-04-06T07:07:12.439Z,5.57
2018-04-06T07:09:50.025Z,6.00
2018-04-06T07:12:24.296Z,6.30
2018-04-06T07:14:57.799Z,9.33
2018-04-06T07:17:35.294Z,5.27
2018-04-06T07:20:12.281Z,5.37
2018-04-06T07:26:19.097Z,8.63
2018-04-06T07:29:13.863Z,6.60
2018-04-06T07:31:49.163Z,4.37
2018-04-06T07:34:22.459Z,4.93
2018-04-06T07:43:46.679Z,7.37
2018-04-06T07:46:29.807Z,6.83
2018-04-06T07:49:17.204Z,3.50
2018-04-06T07:52:05.984Z,3.20
2018-04-06T07:54:41.080Z,4.90
2018-04-06T07:57:16.459Z,4.13
2018-04-06T07:59:50.164Z,4.63
2018-04-06T08:02:23.242Z,3.10
2018-04-06T08:04:58.064Z,2.70
2018-04-06T08:07:39.487Z,4.03
2018-04-06T08:10:16.760Z,4.07
2018-04-06T08:12:51.197Z,3.10
2018-04-06T08:15:25.819Z,3.43
2018-04-06T08:17:58.550Z,4.23
2018-04-06T08:20:31.041Z,3.73
2018-04-06T08:23:09.468Z,3.10
2018-04-06T08:49:50.801Z,3.90
2018-04-06T08:52:31.718Z,3.23
2018-04-06T08:55:04.306Z,6.87
2018-04-06T08:57:37.760Z,4.53
2018-04-06T09:00:18.534Z,4.23
2018-04-06T09:02:54.525Z,4.43
2018-04-06T09:05:29.613Z,3.47
2018-04-06T09:08:04.384Z,3.87
2018-04-06T09:10:36.027Z,2.90
2018-04-06T09:13:10.735Z,3.43
2018-04-06T09:15:43.662Z,3.77
2018-04-06T09:18:22.224Z,4.43
2018-04-06T09:20:52.773Z,3.03
2018-04-06T09:23:26.408Z,4.33
2018-04-06T09:25:56.504Z,4.13
2018-04-06T09:28:30.303Z,3.93
2018-04-06T09:31:09.000Z,3.33
2018-04-06T09:33:54.603Z,4.53
2018-04-06T09:36:23.393Z,5.40
2018-04-06T09:38:55.449Z,4.27
2018-04-06T09:41:26.097Z,4.80
2018-04-06T09:43:56.461Z,4.27
2018-04-06T09:46:26.973Z,4.10
2018-04-06T09:49:11.720Z,4.13
2018-04-06T09:51:41.864Z,4.70
2018-04-06T09:54:12.432Z,4.30
2018-04-06T09:56:43.455Z,5.27
2018-04-06T09:59:14.425Z,4.63
2018-04-06T10:01:52.453Z,3.80
2018-04-06T10:04:24.051Z,3.57
2018-04-06T10:06:53.842Z,3.97
2018-04-06T10:09:24.607Z,4.17
2018-04-06T10:11:57.534Z,5.53
2018-04-06T10:14:29.645Z,6.73
2018-04-06T10:17:20.640Z,3.23
2018-04-06T10:19:56.116Z,5.53
2018-04-06T10:22:31.515Z,3.60
2018-04-06T10:25:03.487Z,3.60
2018-04-06T10:27:36.260Z,4.57
2018-04-06T10:30:09.417Z,5.70
2018-04-06T10:32:39.741Z,3.57
2018-04-06T10:35:08.389Z,4.17
2018-04-06T10:37:37.057Z,3.80
2018-04-06T10:40:07.941Z,4.47
2018-04-06T10:42:51.324Z,4.50
2018-04-06T10:45:28.665Z,3.50
2018-04-06T10:47:59.485Z,3.00
2018-04-06T10:50:30.409Z,3.80
2018-04-06T10:53:03.221Z,3.50
2018-04-06T10:55:34.241Z,4.90
2018-04-06T10:58:04.795Z,3.83
2018-04-06T11:00:35.713Z,2.93
2018-04-06T11:03:06.353Z,3.77
2018-04-06T11:05:42.111Z,3.37
2018-04-06T11:08:18.941Z,3.27
2018-04-06T11:10:58.092Z,4.30
2018-04-06T11:13:31.037Z,2.63
2018-04-06T11:16:01.269Z,2.87
2018-04-06T11:18:33.315Z,3.10
2018-04-06T11:21:04.510Z,2.90
2018-04-06T11:23:48.858Z,2.50
2018-04-06T11:26:20.771Z,3.10
2018-04-06T11:28:50.137Z,5.27
2018-04-06T11:31:23.117Z,3.13
2018-04-06T11:33:55.087Z,3.27
2018-04-06T11:36:26.097Z,2.80
2018-04-06T11:38:59.216Z,2.43
2018-04-06T11:41:30.780Z,3.73
2018-04-06T11:44:00.055Z,3.07
2018-04-06T11:46:31.129Z,4.47
2018-04-06T11:49:01.163Z,2.97
2018-04-06T11:51:41.598Z,3.23
2018-04-06T11:54:10.666Z,3.27
2018-04-06T11:56:46.926Z,2.97
2018-04-06T11:59:21.667Z,3.13
2018-04-06T12:01:56.995Z,3.90
2018-04-06T12:04:27.822Z,3.73
2018-04-06T12:07:00.051Z,2.77
2018-04-06T12:09:33.898Z,4.33
2018-04-06T12:12:06.723Z,3.23
2018-04-06T12:14:37.345Z,3.80
2018-04-06T12:17:07.350Z,3.47
2018-04-06T12:19:44.379Z,2.53
2018-04-06T12:22:16.889Z,2.63
2018-04-06T12:24:50.383Z,2.83
2018-04-06T12:27:21.376Z,2.33
2018-04-06T12:29:55.536Z,2.77
2018-04-06T12:32:24.752Z,2.30
2018-04-06T12:34:56.147Z,3.23
2018-04-06T12:37:28.379Z,5.30
2018-04-06T12:39:58.776Z,4.77
2018-04-06T12:42:27.314Z,3.10
2018-04-06T12:45:05.085Z,3.07
2018-04-06T12:47:36.082Z,3.67
2018-04-06T12:52:49.886Z,2.70
2018-04-06T12:55:20.049Z,2.97
2018-04-06T12:57:48.542Z,2.40
2018-04-06T13:00:18.633Z,3.23
2018-04-06T13:02:47.120Z,2.87
2018-04-06T13:05:17.532Z,2.77
2018-04-06T13:07:48.223Z,2.43
2018-04-06T13:10:21.135Z,2.47
2018-04-06T13:12:53.387Z,2.43
2018-04-06T13:15:25.035Z,2.40
2018-04-06T13:17:54.643Z,3.80
2018-04-06T13:20:24.707Z,3.77
2018-04-06T13:22:55.831Z,3.77
2018-04-06T13:25:28.767Z,2.40
2018-04-06T13:27:59.035Z,4.23
2018-04-06T13:30:29.267Z,2.90
2018-04-06T13:35:42.291Z,4.00
2018-04-06T13:38:12.827Z,3.27
2018-04-06T13:40:50.417Z,3.10
2018-04-06T13:43:21.021Z,3.00
2018-04-06T13:45:54.540Z,2.70
2018-04-06T13:48:26.973Z,3.40
2018-04-06T13:51:05.303Z,4.40
2018-04-06T13:53:39.916Z,2.80
2018-04-06T13:56:10.516Z,4.17
2018-04-06T13:58:39.241Z,3.23
2018-04-06T14:01:10.519Z,3.30
2018-04-06T14:03:40.871Z,3.97
2018-04-06T14:08:52.832Z,4.40
2018-04-06T14:11:29.633Z,4.53
2018-04-06T14:14:01.241Z,3.20
2018-04-06T14:16:31.865Z,2.63
2018-04-06T14:19:02.442Z,3.30
2018-04-06T14:21:32.379Z,3.00
2018-04-06T14:24:02.045Z,3.73
2018-04-06T14:26:37.084Z,4.03
2018-04-06T14:29:06.786Z,3.60
2018-04-06T14:31:41.363Z,3.30
2018-04-06T14:34:13.346Z,4.87
2018-04-06T14:36:44.879Z,3.77
2018-04-06T14:41:55.182Z,4.30
2018-04-06T14:44:26.312Z,2.53
2018-04-06T14:46:56.530Z,3.63
2018-04-06T14:49:27.411Z,3.30
2018-04-06T14:52:04.569Z,4.40
2018-04-06T14:54:33.740Z,3.70
2018-04-06T14:57:08.305Z,3.30
2018-04-06T14:59:39.024Z,3.00
2018-04-06T15:02:13.158Z,3.43
2018-04-06T15:04:44.782Z,3.47
2018-04-06T15:07:14.374Z,5.30
2018-04-06T15:12:25.521Z,3.40
2018-04-06T15:14:55.822Z,3.63
2018-04-06T15:17:26.664Z,3.70
2018-04-06T15:19:58.186Z,4.20
2018-04-06T15:22:26.783Z,4.00
2018-04-06T15:24:58.845Z,4.17
2018-04-06T15:27:29.874Z,3.90
2018-04-06T15:30:00.510Z,4.23
2018-04-06T15:32:31.837Z,3.77
2018-04-06T15:35:04.580Z,3.73
2018-04-06T15:37:37.449Z,5.67
2018-04-06T15:40:10.165Z,3.90
2018-04-06T15:42:39.192Z,3.67
2018-04-06T15:50:28.023Z,5.13
2018-04-06T15:52:57.954Z,14.40
2018-04-06T15:55:29.693Z,4.03
2018-04-06T15:57:58.337Z,5.83
2018-04-06T16:00:28.228Z,5.33
2018-04-06T16:02:58.540Z,4.53
2018-04-06T16:05:30.862Z,3.80
2018-04-06T16:08:03.130Z,4.10
2018-04-06T16:10:33.473Z,4.80
2018-04-06T16:13:05.076Z,4.67
2018-04-06T16:15:36.801Z,4.03
2018-04-06T16:18:16.705Z,4.30
2018-04-06T16:20:45.331Z,4.70
2018-04-06T16:23:21.078Z,4.10
2018-04-06T16:25:53.158Z,4.10
2018-04-06T16:28:27.500Z,5.10
2018-04-06T16:31:00.073Z,5.47
2018-04-06T16:33:29.974Z,4.53
2018-04-06T16:36:02.824Z,3.93
2018-04-06T16:38:35.085Z,4.23
2018-04-06T16:41:07.601Z,4.03
2018-04-06T16:43:38.985Z,5.40
2018-04-06T16:46:09.301Z,5.83
2018-04-06T16:48:38.566Z,4.20
2018-04-06T16:51:16.073Z,4.17
2018-04-06T16:53:49.060Z,4.83
2018-04-06T16:56:23.843Z,4.53
2018-04-06T16:58:59.824Z,5.33
2018-04-06T17:01:35.506Z,4.93
2018-04-06T17:04:17.106Z,5.40
2018-04-06T17:06:52.797Z,5.13
2018-04-06T17:09:25.422Z,4.90
2018-04-06T17:11:58.939Z,4.83
2018-04-06T17:14:38.599Z,4.33
2018-04-06T17:17:10.742Z,4.10
2018-04-06T17:19:47.370Z,5.17
2018-04-06T17:22:20.081Z,7.77
2018-04-06T17:24:53.281Z,4.70
2018-04-06T17:27:26.421Z,4.23
2018-04-06T17:29:59.919Z,4.07
2018-04-06T17:32:34.380Z,3.53
2018-04-06T17:35:07.879Z,4.67
2018-04-06T17:37:47.785Z,3.87
2018-04-06T17:40:29.863Z,4.70
2018-04-06T17:43:03.004Z,4.20
2018-04-06T17:45:36.943Z,3.90
2018-04-06T17:48:09.681Z,3.63
2018-04-06T17:50:42.360Z,4.67
2018-04-06T17:53:17.878Z,3.90
2018-04-06T17:55:52.699Z,3.70
2018-04-06T17:58:28.440Z,3.90
2018-04-06T18:01:06.797Z,4.83
2018-04-06T18:03:42.497Z,4.00
2018-04-06T18:06:20.040Z,4.20
2018-04-06T18:08:57.784Z,5.83
2018-04-06T18:11:32.353Z,5.20
2018-04-06T18:14:05.405Z,3.80
2018-04-06T18:16:43.040Z,3.37
2018-04-06T18:19:19.200Z,5.60
2018-04-06T18:21:53.261Z,3.83
2018-04-06T18:24:29.578Z,5.10
2018-04-06T18:27:03.661Z,5.37
2018-04-06T18:29:35.996Z,6.10
2018-04-06T18:32:10.919Z,8.13
2018-04-06T18:34:47.768Z,7.00
2018-04-06T18:37:25.608Z,9.20
2018-04-06T18:40:06.357Z,5.63
2018-04-06T18:42:41.114Z,10.57
2018-04-06T18:45:17.182Z,7.97
2018-04-06T18:47:50.518Z,9.20
2018-04-06T18:50:25.805Z,8.30
2018-04-06T18:53:00.427Z,6.00
2018-04-06T18:55:34.460Z,9.90
2018-04-06T18:58:09.363Z,9.73
2018-04-06T19:00:42.422Z,13.03
2018-04-06T19:03:16.541Z,13.63
2018-04-06T19:05:52.376Z,8.63
2018-04-06T19:08:29.659Z,6.60
2018-04-06T19:11:02.043Z,10.87
2018-04-06T19:13:36.679Z,5.00
2018-04-06T19:16:14.384Z,8.80
2018-04-06T19:18:52.962Z,12.00
2018-04-06T19:21:30.285Z,7.00
2018-04-06T19:24:05.597Z,5.37
2018-04-06T19:26:39.259Z,3.77
2018-04-06T19:29:15.357Z,3.83
2018-04-06T19:31:50.600Z,7.57
2018-04-06T19:34:26.444Z,6.00
2018-04-06T19:37:02.080Z,4.57
2018-04-06T19:39:36.058Z,5.20
2018-04-06T19:42:12.479Z,5.53
2018-04-06T19:44:47.298Z,5.43
2018-04-06T19:47:24.641Z,4.93
2018-04-06T19:49:57.700Z,8.17
2018-04-06T19:52:32.397Z,7.70
2018-04-06T19:55:08.325Z,8.80
2018-04-06T19:57:42.182Z,7.60
2018-04-06T20:00:19.039Z,9.47
2018-04-06T20:02:52.517Z,9.90
2018-04-06T20:05:27.074Z,7.07
2018-04-06T20:08:00.798Z,6.00
2018-04-06T20:10:34.724Z,6.87
2018-04-06T20:13:11.781Z,6.50
2018-04-06T20:15:45.839Z,7.20
2018-04-06T20:18:29.240Z,7.70
2018-04-06T20:21:04.217Z,8.43
2018-04-06T20:23:39.197Z,9.10
2018-04-06T20:26:14.543Z,12.37
2018-04-06T20:28:48.402Z,12.17
2018-04-06T20:31:23.540Z,11.93
2018-04-06T20:33:58.687Z,8.93
2018-04-06T20:36:32.200Z,10.40
2018-04-06T20:39:05.780Z,4.47
2018-04-06T20:41:40.509Z,6.10
2018-04-06T20:44:16.681Z,5.13
2018-04-06T20:47:00.943Z,6.80
2018-04-06T20:49:42.826Z,3.77
2018-04-06T20:52:17.542Z,5.37
2018-04-06T20:54:49.723Z,5.03
2018-04-06T20:57:25.377Z,5.77
2018-04-06T21:00:02.723Z,5.03
2018-04-06T21:02:35.462Z,4.63
2018-04-06T21:05:12.044Z,4.97
2018-04-06T21:07:43.999Z,3.43
2018-04-06T21:10:28.280Z,3.20
2018-04-06T21:13:08.698Z,4.20
2018-04-06T21:15:40.862Z,4.60
2018-04-06T21:18:15.720Z,3.70
2018-04-06T21:20:56.342Z,4.23
2018-04-06T21:23:32.995Z,3.90
2018-04-06T21:26:07.901Z,4.10
2018-04-06T21:28:42.402Z,6.03
2018-04-06T21:31:14.742Z,8.87
2018-04-06T21:33:46.578Z,6.07
2018-04-06T21:36:20.383Z,6.30
2018-04-06T21:38:53.759Z,4.43
2018-04-06T21:41:31.922Z,4.87
2018-04-06T21:44:04.525Z,4.27
2018-04-06T21:46:39.544Z,4.70
2018-04-06T21:49:17.041Z,5.07
2018-04-06T21:51:50.942Z,5.90
2018-04-06T21:54:25.418Z,5.43
2018-04-06T21:57:01.845Z,10.40
2018-04-06T21:59:35.801Z,5.27
2018-04-06T22:02:10.515Z,5.73
2018-04-06T22:04:46.242Z,4.60
2018-04-06T22:07:21.699Z,5.10
2018-04-06T22:09:55.643Z,6.03
2018-04-06T22:12:30.559Z,6.20
2018-04-06T22:15:06.039Z,5.47
2018-04-06T22:17:40.818Z,4.87
2018-04-06T22:20:14.960Z,5.73
2018-04-06T22:23:03.677Z,5.07
2018-04-06T22:25:40.941Z,6.60
2018-04-06T22:28:13.337Z,5.73
2018-04-06T22:30:48.144Z,5.17
2018-04-06T22:33:25.618Z,8.97
2018-04-06T22:35:59.101Z,9.50
2018-04-06T22:38:32.843Z,6.10
2018-04-06T22:41:06.679Z,5.90
2018-04-06T22:43:40.917Z,6.37
2018-04-06T22:46:14.338Z,6.77
2018-04-06T22:48:48.122Z,8.07
2018-04-06T22:51:22.838Z,7.70
2018-04-06T22:54:00.083Z,7.97
2018-04-06T22:56:34.438Z,7.43
2018-04-06T22:59:10.339Z,5.07
2018-04-06T23:01:44.439Z,7.57
2018-04-06T23:04:18.258Z,8.77
2018-04-06T23:06:52.182Z,4.97
2018-04-06T23:09:25.320Z,7.13
2018-04-06T23:11:59.501Z,6.87
2018-04-06T23:14:35.024Z,7.13
2018-04-06T23:17:07.772Z,8.10
2018-04-06T23:19:48.703Z,6.43
2018-04-06T23:22:24.881Z,6.03
2018-04-06T23:24:56.204Z,7.33
2018-04-06T23:27:29.590Z,6.90
2018-04-06T23:30:11.743Z,6.70
2018-04-06T23:32:44.281Z,7.67
2018-04-06T23:35:24.378Z,6.60
2018-04-06T23:38:01.557Z,7.57
2018-04-06T23:40:36.363Z,9.80
2018-04-06T23:43:09.558Z,7.33
2018-04-06T23:45:43.140Z,6.10
2018-04-06T23:48:16.399Z,6.10
2018-04-06T23:50:50.082Z,7.13
2018-04-06T23:53:24.019Z,8.43
2018-04-06T23:55:59.116Z,7.50
2018-04-06T23:58:32.860Z,5.90
